createdAt,value
2022-09-30T00:01:21.548Z,28.23
2022-09-30T00:03:49.464Z,33.30
2022-09-30T00:06:16.514Z,33.40
2022-09-30T00:08:43.639Z,38.50
2022-09-30T00:11:19.628Z,36.30
2022-09-30T00:13:50.636Z,37.17
2022-09-30T00:16:20.130Z,37.00
2022-09-30T00:18:47.399Z,35.43
2022-09-30T00:21:16.357Z,39.23
2022-09-30T00:23:44.998Z,34.00
2022-09-30T00:26:14.643Z,30.13
2022-09-30T00:28:42.716Z,28.63
2022-09-30T00:31:13.811Z,29.30
2022-09-30T00:33:41.440Z,35.23
2022-09-30T00:36:09.086Z,34.43
2022-09-30T00:38:36.273Z,27.50
2022-09-30T00:41:03.737Z,29.40
2022-09-30T00:43:51.456Z,28.47
2022-09-30T00:46:33.346Z,28.77
2022-09-30T00:49:08.186Z,29.80
2022-09-30T00:51:39.260Z,30.30
2022-09-30T00:54:10.904Z,37.47
2022-09-30T00:56:42.906Z,34.27
2022-09-30T00:59:20.709Z,28.27
2022-09-30T01:01:47.631Z,30.60
2022-09-30T01:04:27.545Z,29.03
2022-09-30T01:06:54.469Z,30.57
2022-09-30T01:09:21.977Z,30.23
2022-09-30T01:11:49.267Z,32.97
2022-09-30T01:14:24.190Z,27.60
2022-09-30T01:17:17.944Z,26.37
2022-09-30T01:20:22.527Z,30.73
2022-09-30T01:23:31.483Z,31.17
2022-09-30T01:26:43.357Z,32.13
2022-09-30T01:29:39.283Z,33.43
2022-09-30T01:32:43.713Z,36.83
2022-09-30T01:35:51.255Z,32.30
2022-09-30T01:38:29.691Z,34.73
2022-09-30T01:41:08.301Z,40.10
2022-09-30T01:44:04.435Z,43.03
2022-09-30T01:46:44.270Z,36.40
2022-09-30T01:49:31.322Z,36.00
2022-09-30T01:52:23.599Z,37.63
2022-09-30T01:54:56.106Z,34.80
2022-09-30T01:57:36.018Z,35.73
2022-09-30T02:00:09.870Z,35.90
2022-09-30T02:02:50.416Z,39.70
2022-09-30T02:05:42.833Z,30.30
2022-09-30T02:08:17.741Z,36.70
2022-09-30T02:10:59.200Z,30.93
2022-09-30T02:13:32.958Z,34.63
2022-09-30T02:16:12.892Z,31.63
2022-09-30T02:18:44.844Z,38.37
2022-09-30T02:21:15.976Z,35.60
2022-09-30T02:23:46.146Z,32.07
2022-09-30T02:26:19.145Z,37.57
2022-09-30T02:28:54.184Z,34.30
2022-09-30T02:31:24.117Z,31.03
2022-09-30T02:33:56.926Z,33.50
2022-09-30T02:36:31.560Z,32.43
2022-09-30T02:39:06.944Z,32.00
2022-09-30T02:41:44.380Z,30.43
2022-09-30T02:44:11.936Z,33.03
2022-09-30T02:47:02.804Z,31.70
2022-09-30T02:49:58.553Z,35.20
2022-09-30T02:52:35.597Z,37.93
2022-09-30T02:55:24.181Z,36.83
2022-09-30T02:58:11.744Z,31.80
2022-09-30T03:00:38.975Z,29.50
2022-09-30T03:03:46.337Z,34.07
2022-09-30T03:06:13.638Z,34.07
2022-09-30T03:08:40.836Z,32.83
2022-09-30T03:11:12.061Z,30.53
2022-09-30T03:14:11.053Z,37.03
2022-09-30T03:17:33.434Z,37.70
2022-09-30T03:20:22.427Z,32.20
2022-09-30T03:23:37.331Z,39.87
2022-09-30T03:26:29.959Z,35.23
2022-09-30T03:29:57.877Z,32.67
2022-09-30T03:33:08.080Z,32.87
2022-09-30T03:36:27.208Z,32.80
2022-09-30T03:39:26.705Z,36.00
2022-09-30T03:42:00.093Z,37.60
2022-09-30T03:44:35.763Z,38.60
2022-09-30T03:47:12.861Z,36.57
2022-09-30T03:49:46.967Z,33.53
2022-09-30T03:52:14.728Z,34.87
2022-09-30T03:55:08.798Z,37.33
2022-09-30T03:57:35.768Z,33.33
2022-09-30T04:00:05.346Z,36.67
2022-09-30T04:02:32.657Z,38.23
2022-09-30T04:04:59.616Z,36.50
2022-09-30T04:07:26.588Z,38.90
2022-09-30T04:09:53.432Z,34.63
2022-09-30T04:12:20.333Z,30.63
2022-09-30T04:14:47.242Z,33.77
2022-09-30T04:17:14.164Z,31.97
2022-09-30T04:19:41.115Z,31.67
2022-09-30T04:22:08.880Z,34.37
2022-09-30T04:24:36.175Z,37.70
2022-09-30T04:27:03.900Z,43.53
2022-09-30T04:29:30.888Z,38.53
2022-09-30T04:31:57.918Z,32.20
2022-09-30T04:34:24.881Z,39.00
2022-09-30T04:36:51.816Z,30.93
2022-09-30T04:39:18.782Z,29.37
2022-09-30T04:41:45.701Z,37.53
2022-09-30T04:44:12.624Z,33.43
2022-09-30T04:46:39.568Z,37.13
2022-09-30T04:49:09.488Z,40.23
2022-09-30T04:51:37.316Z,38.53
2022-09-30T04:54:04.881Z,44.43
2022-09-30T04:56:31.802Z,41.77
2022-09-30T04:58:58.734Z,37.03
2022-09-30T05:01:25.865Z,35.87
2022-09-30T05:03:55.720Z,39.50
2022-09-30T05:06:22.587Z,37.07
2022-09-30T05:08:49.671Z,34.03
2022-09-30T05:11:21.407Z,32.50
2022-09-30T05:13:49.033Z,33.60
2022-09-30T05:16:17.286Z,38.33
2022-09-30T05:18:46.456Z,35.03
2022-09-30T05:21:15.253Z,36.70
2022-09-30T05:23:42.365Z,37.50
2022-09-30T05:26:12.313Z,46.03
2022-09-30T05:28:40.981Z,35.63
2022-09-30T05:31:08.493Z,35.63
2022-09-30T05:33:36.208Z,41.00
2022-09-30T05:36:08.675Z,46.17
2022-09-30T05:38:35.805Z,48.77
2022-09-30T05:41:11.617Z,36.90
2022-09-30T05:43:40.675Z,33.77
2022-09-30T05:46:07.967Z,33.00
2022-09-30T05:48:35.046Z,36.73
2022-09-30T05:51:02.443Z,42.23
2022-09-30T05:53:32.145Z,53.03
2022-09-30T05:55:59.542Z,57.90
2022-09-30T05:58:27.599Z,67.17
2022-09-30T06:00:54.605Z,70.23
2022-09-30T06:03:23.498Z,71.33
2022-09-30T06:05:56.999Z,75.87
2022-09-30T06:08:24.086Z,76.20
2022-09-30T06:10:51.367Z,81.33
2022-09-30T06:13:18.700Z,85.10
2022-09-30T06:15:54.719Z,76.67
2022-09-30T06:18:21.680Z,82.77
2022-09-30T06:20:48.567Z,75.73
2022-09-30T06:23:15.715Z,69.70
2022-09-30T06:25:43.731Z,71.80
2022-09-30T06:28:10.807Z,64.10
2022-09-30T06:30:37.747Z,63.60
2022-09-30T06:33:04.703Z,53.83
2022-09-30T06:35:31.510Z,47.13
2022-09-30T06:37:58.465Z,48.57
2022-09-30T06:40:25.993Z,45.23
2022-09-30T06:42:59.262Z,35.70
2022-09-30T06:45:32.723Z,31.73
2022-09-30T06:48:01.505Z,28.67
2022-09-30T06:50:29.954Z,39.63
2022-09-30T06:53:06.338Z,14.80
2022-09-30T06:55:36.625Z,21.30
2022-09-30T06:58:03.664Z,14.37
2022-09-30T07:00:30.669Z,13.23
2022-09-30T07:02:57.571Z,17.13
2022-09-30T07:05:27.896Z,18.93
2022-09-30T07:07:55.177Z,14.53
2022-09-30T07:10:22.161Z,10.60
2022-09-30T07:12:52.890Z,17.87
2022-09-30T07:15:23.419Z,11.23
2022-09-30T07:17:56.967Z,9.60
2022-09-30T07:20:24.376Z,9.53
2022-09-30T07:22:51.531Z,7.93
2022-09-30T07:25:18.778Z,7.27
2022-09-30T07:27:46.914Z,9.37
2022-09-30T07:30:22.824Z,13.53
2022-09-30T07:32:53.600Z,10.70
2022-09-30T07:35:23.582Z,6.73
2022-09-30T07:37:50.574Z,6.90
2022-09-30T07:40:17.660Z,8.20
2022-09-30T07:42:46.036Z,8.67
2022-09-30T07:45:17.233Z,9.97
2022-09-30T07:47:44.473Z,7.00
2022-09-30T07:50:13.430Z,7.13
2022-09-30T07:52:40.403Z,7.50
2022-09-30T07:55:07.551Z,8.40
2022-09-30T07:57:34.541Z,6.30
2022-09-30T08:00:16.972Z,13.07
2022-09-30T08:02:48.469Z,6.80
2022-09-30T08:05:15.444Z,14.40
2022-09-30T08:07:42.312Z,7.60
2022-09-30T08:10:09.762Z,12.60
2022-09-30T08:12:37.568Z,6.20
2022-09-30T08:15:06.262Z,7.87
2022-09-30T08:17:33.180Z,7.40
2022-09-30T08:20:00.345Z,10.37
2022-09-30T08:22:28.250Z,6.60
2022-09-30T08:24:55.161Z,8.00
2022-09-30T08:27:22.381Z,10.93
2022-09-30T08:29:58.191Z,10.73
2022-09-30T08:32:29.835Z,8.17
2022-09-30T08:34:56.838Z,9.07
2022-09-30T08:37:24.631Z,10.37
2022-09-30T08:39:51.568Z,10.13
2022-09-30T08:43:20.330Z,9.83
2022-09-30T08:46:22.600Z,10.07
2022-09-30T08:49:07.157Z,10.70
2022-09-30T08:51:46.311Z,18.33
2022-09-30T08:54:17.447Z,14.33
2022-09-30T08:56:45.757Z,10.57
2022-09-30T08:59:55.610Z,11.10
2022-09-30T09:02:40.945Z,9.13
2022-09-30T09:05:11.717Z,9.90
2022-09-30T09:08:12.089Z,9.33
2022-09-30T09:11:02.271Z,11.53
2022-09-30T09:13:48.172Z,8.87
2022-09-30T09:16:30.681Z,12.90
2022-09-30T09:19:11.698Z,9.60
2022-09-30T09:22:09.127Z,8.53
2022-09-30T09:24:45.290Z,8.77
2022-09-30T09:27:44.697Z,8.60
2022-09-30T09:30:14.475Z,8.67
2022-09-30T09:32:44.576Z,12.73
2022-09-30T09:35:17.779Z,13.03
2022-09-30T09:38:26.258Z,7.63
2022-09-30T09:41:23.035Z,9.70
2022-09-30T09:44:08.309Z,10.10
2022-09-30T09:46:46.308Z,9.67
2022-09-30T09:49:42.404Z,12.80
2022-09-30T09:52:55.201Z,7.43
2022-09-30T09:55:23.429Z,13.50
2022-09-30T09:58:26.567Z,6.17
2022-09-30T10:00:53.491Z,6.37
2022-09-30T10:03:26.943Z,11.33
2022-09-30T10:06:10.228Z,7.30
2022-09-30T10:08:39.819Z,17.40
2022-09-30T10:11:18.188Z,11.00
2022-09-30T10:13:46.016Z,7.37
2022-09-30T10:16:35.744Z,5.50
2022-09-30T10:19:09.417Z,6.93
2022-09-30T10:21:38.145Z,7.07
2022-09-30T10:24:40.968Z,6.20
2022-09-30T10:27:26.279Z,8.23
2022-09-30T10:29:53.135Z,5.40
2022-09-30T10:32:21.055Z,5.37
2022-09-30T10:35:02.132Z,6.20
2022-09-30T10:37:29.134Z,5.67
2022-09-30T10:40:06.571Z,4.47
2022-09-30T10:42:36.477Z,3.80
2022-09-30T10:45:30.798Z,5.30
2022-09-30T10:47:59.834Z,3.20
2022-09-30T10:50:29.707Z,3.30
2022-09-30T10:53:11.435Z,5.87
2022-09-30T10:55:44.014Z,5.60
2022-09-30T10:58:35.334Z,5.23
2022-09-30T11:01:22.918Z,3.87
2022-09-30T11:04:33.314Z,3.90
2022-09-30T11:07:18.624Z,4.77
2022-09-30T11:09:58.896Z,3.77
2022-09-30T11:12:52.035Z,3.00
2022-09-30T11:15:34.068Z,3.33
2022-09-30T11:18:16.924Z,3.00
2022-09-30T11:20:54.093Z,3.33
2022-09-30T11:23:53.433Z,8.00
2022-09-30T11:27:17.185Z,3.60
2022-09-30T11:30:09.735Z,3.57
2022-09-30T11:33:27.362Z,3.57
2022-09-30T11:36:15.376Z,5.23
2022-09-30T11:39:18.621Z,3.63
2022-09-30T11:41:56.931Z,3.63
2022-09-30T11:44:44.784Z,3.80
2022-09-30T11:47:59.279Z,3.77
2022-09-30T11:50:52.912Z,7.40
2022-09-30T11:53:30.721Z,6.67
2022-09-30T11:56:28.878Z,3.17
2022-09-30T11:59:02.799Z,3.70
2022-09-30T12:01:37.496Z,4.30
2022-09-30T12:04:15.251Z,5.20
2022-09-30T12:07:00.751Z,3.00
2022-09-30T12:09:38.838Z,6.20
2022-09-30T12:12:16.020Z,3.73
2022-09-30T12:14:53.770Z,3.13
2022-09-30T12:17:55.144Z,4.30
2022-09-30T12:20:51.412Z,4.00
2022-09-30T12:23:33.798Z,7.73
2022-09-30T12:26:02.736Z,2.40
2022-09-30T12:29:18.128Z,3.67
2022-09-30T12:32:19.323Z,3.60
2022-09-30T12:35:18.185Z,4.27
2022-09-30T12:38:16.807Z,2.90
2022-09-30T12:41:23.305Z,7.80
2022-09-30T12:44:24.487Z,5.57
2022-09-30T12:47:26.679Z,6.00
2022-09-30T12:49:58.464Z,3.13
2022-09-30T12:52:26.605Z,5.83
2022-09-30T12:55:01.541Z,3.93
2022-09-30T12:57:37.100Z,5.20
2022-09-30T13:00:22.925Z,2.60
2022-09-30T13:02:56.996Z,3.10
2022-09-30T13:05:59.380Z,3.30
2022-09-30T13:08:45.582Z,2.70
2022-09-30T13:11:43.254Z,3.23
2022-09-30T13:14:43.696Z,2.10
2022-09-30T13:17:30.903Z,1.70
2022-09-30T13:19:57.757Z,4.63
2022-09-30T13:22:42.822Z,2.43
2022-09-30T13:25:15.854Z,4.47
2022-09-30T13:28:14.831Z,1.63
2022-09-30T13:30:41.874Z,3.00
2022-09-30T13:33:41.942Z,2.57
2022-09-30T13:36:19.338Z,4.17
2022-09-30T13:38:46.318Z,3.10
2022-09-30T13:41:25.154Z,3.63
2022-09-30T13:44:06.086Z,2.60
2022-09-30T13:46:43.510Z,4.07
2022-09-30T13:49:19.631Z,11.87
2022-09-30T13:51:47.175Z,3.30
2022-09-30T13:54:47.705Z,2.23
2022-09-30T13:57:27.776Z,23.90
2022-09-30T14:00:11.016Z,1.97
2022-09-30T14:02:48.044Z,2.60
2022-09-30T14:05:37.022Z,3.83
2022-09-30T14:08:32.198Z,2.50
2022-09-30T14:11:32.913Z,2.33
2022-09-30T14:14:37.320Z,2.00
2022-09-30T14:17:34.974Z,1.83
2022-09-30T14:20:35.168Z,3.53
2022-09-30T14:23:02.663Z,2.00
2022-09-30T14:25:38.803Z,2.43
2022-09-30T14:28:12.656Z,2.20
2022-09-30T14:30:42.120Z,5.00
2022-09-30T14:33:26.317Z,2.70
2022-09-30T14:35:54.600Z,5.50
2022-09-30T14:38:28.383Z,4.30
2022-09-30T14:40:58.575Z,2.57
2022-09-30T14:43:32.634Z,2.17
2022-09-30T14:46:14.038Z,2.07
2022-09-30T14:48:44.109Z,2.90
2022-09-30T14:51:14.345Z,2.80
2022-09-30T14:54:23.627Z,1.43
2022-09-30T14:56:54.591Z,1.80
2022-09-30T14:59:27.147Z,3.10
2022-09-30T15:02:03.343Z,2.90
2022-09-30T15:04:35.637Z,4.50
2022-09-30T15:07:06.943Z,4.77
2022-09-30T15:09:37.447Z,3.73
2022-09-30T15:12:25.458Z,3.13
2022-09-30T15:14:58.067Z,1.63
2022-09-30T15:17:28.591Z,1.80
2022-09-30T15:19:59.488Z,1.43
2022-09-30T15:22:29.393Z,2.93
2022-09-30T15:24:57.862Z,5.57
2022-09-30T15:27:30.496Z,1.63
2022-09-30T15:30:03.496Z,2.93
2022-09-30T15:32:36.620Z,1.40
2022-09-30T15:35:13.880Z,1.83
2022-09-30T15:37:41.264Z,3.57
2022-09-30T15:40:39.186Z,3.27
2022-09-30T15:43:11.867Z,4.07
2022-09-30T15:45:44.395Z,3.73
2022-09-30T15:48:36.135Z,1.80
2022-09-30T15:51:30.404Z,1.73
2022-09-30T15:54:02.780Z,3.10
2022-09-30T15:56:37.840Z,2.80
2022-09-30T15:59:12.103Z,7.13
2022-09-30T16:01:56.716Z,3.03
2022-09-30T16:04:26.246Z,3.27
2022-09-30T16:06:58.413Z,2.83
2022-09-30T16:09:34.420Z,2.80
2022-09-30T16:12:21.590Z,2.10
2022-09-30T16:15:00.104Z,3.23
2022-09-30T16:17:32.715Z,2.33
2022-09-30T16:20:22.244Z,3.13
2022-09-30T16:22:55.126Z,3.90
2022-09-30T16:25:33.724Z,11.17
2022-09-30T16:28:12.518Z,12.50
2022-09-30T16:30:54.383Z,3.13
2022-09-30T16:33:21.320Z,7.00
2022-09-30T16:35:48.645Z,13.33
2022-09-30T16:38:17.585Z,6.23
2022-09-30T16:40:44.638Z,11.83
2022-09-30T16:43:11.836Z,8.97
2022-09-30T16:45:40.400Z,4.60
2022-09-30T16:48:26.644Z,5.20
2022-09-30T16:51:07.241Z,3.93
2022-09-30T16:53:35.270Z,8.93
2022-09-30T16:56:02.233Z,3.50
2022-09-30T16:58:29.807Z,3.93
2022-09-30T17:00:57.866Z,4.63
2022-09-30T17:03:24.972Z,8.50
2022-09-30T17:05:53.305Z,4.73
2022-09-30T17:08:21.434Z,9.63
2022-09-30T17:10:50.188Z,7.57
2022-09-30T17:13:18.343Z,3.17
2022-09-30T17:15:50.627Z,2.90
2022-09-30T17:18:17.953Z,4.50
2022-09-30T17:20:49.196Z,4.07
2022-09-30T17:23:16.180Z,3.30
2022-09-30T17:25:43.555Z,3.70
2022-09-30T17:28:11.602Z,5.63
2022-09-30T17:30:41.747Z,6.50
2022-09-30T17:33:11.908Z,8.00
2022-09-30T17:35:40.557Z,4.87
2022-09-30T17:38:12.610Z,3.57
2022-09-30T17:40:58.172Z,3.70
2022-09-30T17:43:25.055Z,4.20
2022-09-30T17:45:52.489Z,7.53
2022-09-30T17:48:19.709Z,5.20
2022-09-30T17:50:48.315Z,5.20
2022-09-30T17:53:19.491Z,5.80
2022-09-30T17:55:48.554Z,7.60
2022-09-30T17:58:17.103Z,12.23
2022-09-30T18:00:44.660Z,11.63
2022-09-30T18:03:12.246Z,10.13
2022-09-30T18:05:39.262Z,9.03
2022-09-30T18:08:06.296Z,7.23
2022-09-30T18:10:37.687Z,10.20
2022-09-30T18:13:05.132Z,7.43
2022-09-30T18:15:32.226Z,5.83
2022-09-30T18:17:59.179Z,7.47
2022-09-30T18:20:26.095Z,6.30
2022-09-30T18:22:53.565Z,9.33
2022-09-30T18:25:20.560Z,7.50
2022-09-30T18:27:49.025Z,9.67
2022-09-30T18:30:16.107Z,6.97
2022-09-30T18:32:46.326Z,6.23
2022-09-30T18:35:14.343Z,10.03
2022-09-30T18:37:42.518Z,5.63
2022-09-30T18:40:11.675Z,6.80
2022-09-30T18:42:39.217Z,6.43
2022-09-30T18:45:11.395Z,9.97
2022-09-30T18:47:39.367Z,7.00
2022-09-30T18:50:07.428Z,8.00
2022-09-30T18:52:34.380Z,7.57
2022-09-30T18:55:01.455Z,10.33
2022-09-30T18:57:28.569Z,8.20
2022-09-30T18:59:55.651Z,7.87
2022-09-30T19:02:22.566Z,6.17
2022-09-30T19:04:49.476Z,7.80
2022-09-30T19:07:20.558Z,8.20
2022-09-30T19:09:50.172Z,7.07
2022-09-30T19:12:17.737Z,9.43
2022-09-30T19:14:45.312Z,5.13
2022-09-30T19:17:12.442Z,5.30
2022-09-30T19:19:41.238Z,5.73
2022-09-30T19:22:08.598Z,4.30
2022-09-30T19:24:36.024Z,6.83
2022-09-30T19:27:04.090Z,4.53
2022-09-30T19:29:31.578Z,4.10
2022-09-30T19:31:58.871Z,5.53
2022-09-30T19:34:32.101Z,4.83
2022-09-30T19:37:00.095Z,4.70
2022-09-30T19:39:37.083Z,5.50
2022-09-30T19:42:09.661Z,5.10
2022-09-30T19:44:38.198Z,14.20
2022-09-30T19:47:06.323Z,5.83
2022-09-30T19:49:33.305Z,6.77
2022-09-30T19:52:03.855Z,3.53
2022-09-30T19:54:40.939Z,7.67
2022-09-30T19:57:08.706Z,2.47
2022-09-30T19:59:35.607Z,3.53
2022-09-30T20:02:02.501Z,3.83
2022-09-30T20:04:30.177Z,10.57
2022-09-30T20:06:57.149Z,14.30
2022-09-30T20:09:24.611Z,5.63
2022-09-30T20:11:51.729Z,8.07
2022-09-30T20:14:36.991Z,6.90
2022-09-30T20:17:03.943Z,4.17
2022-09-30T20:19:30.857Z,14.00
2022-09-30T20:21:58.348Z,5.10
2022-09-30T20:24:26.154Z,6.43
2022-09-30T20:26:53.299Z,4.53
2022-09-30T20:29:20.783Z,3.90
2022-09-30T20:31:48.354Z,4.43
2022-09-30T20:34:16.992Z,3.87
2022-09-30T20:36:45.117Z,4.17
2022-09-30T20:39:12.360Z,4.30
2022-09-30T20:41:39.927Z,4.07
2022-09-30T20:44:11.956Z,4.50
2022-09-30T20:46:39.461Z,3.70
2022-09-30T20:49:06.533Z,3.33
2022-09-30T20:51:33.795Z,10.23
2022-09-30T20:54:01.017Z,3.40
2022-09-30T20:56:39.365Z,2.87
2022-09-30T20:59:17.251Z,2.97
2022-09-30T21:01:44.291Z,4.43
2022-09-30T21:04:11.413Z,3.70
2022-09-30T21:06:38.262Z,4.10
2022-09-30T21:09:05.407Z,8.83
2022-09-30T21:11:33.085Z,4.10
2022-09-30T21:14:00.824Z,4.20
2022-09-30T21:16:29.606Z,3.70
2022-09-30T21:18:56.882Z,3.00
2022-09-30T21:21:24.859Z,3.03
2022-09-30T21:23:59.402Z,4.80
2022-09-30T21:26:27.376Z,3.63
2022-09-30T21:28:54.332Z,2.30
2022-09-30T21:31:27.517Z,2.00
2022-09-30T21:33:56.820Z,2.90
2022-09-30T21:36:24.591Z,4.13
2022-09-30T21:38:52.457Z,2.67
2022-09-30T21:41:20.559Z,3.40
2022-09-30T21:43:48.585Z,2.90
2022-09-30T21:46:16.582Z,2.60
2022-09-30T21:48:43.672Z,4.00
2022-09-30T21:51:10.799Z,2.80
2022-09-30T21:53:39.517Z,2.33
2022-09-30T21:56:10.116Z,2.20
2022-09-30T21:58:37.505Z,1.77
2022-09-30T22:01:07.019Z,2.50
2022-09-30T22:03:39.080Z,2.20
2022-09-30T22:06:08.621Z,2.57
2022-09-30T22:08:40.534Z,8.10
2022-09-30T22:11:11.291Z,4.90
2022-09-30T22:13:40.862Z,3.93
2022-09-30T22:16:08.518Z,3.60
2022-09-30T22:18:35.869Z,2.30
2022-09-30T22:21:12.053Z,2.77
2022-09-30T22:23:39.334Z,2.40
2022-09-30T22:26:17.116Z,3.93
2022-09-30T22:28:48.676Z,2.87
2022-09-30T22:31:19.631Z,2.20
2022-09-30T22:34:06.188Z,3.37
2022-09-30T22:36:51.541Z,4.57
2022-09-30T22:39:18.595Z,3.10
2022-09-30T22:41:45.491Z,3.20
2022-09-30T22:44:12.519Z,2.90
2022-09-30T22:46:39.776Z,2.50
2022-09-30T22:49:07.142Z,2.30
2022-09-30T22:51:34.284Z,4.23
2022-09-30T22:54:03.535Z,2.40
2022-09-30T22:56:31.101Z,2.60
2022-09-30T22:58:59.512Z,2.27
2022-09-30T23:01:29.444Z,2.80
2022-09-30T23:03:56.574Z,2.50
2022-09-30T23:06:24.654Z,2.73
2022-09-30T23:08:52.785Z,2.83
2022-09-30T23:11:19.727Z,2.93
2022-09-30T23:13:46.879Z,2.60
2022-09-30T23:16:15.503Z,3.67
2022-09-30T23:18:46.394Z,3.73
2022-09-30T23:21:18.492Z,3.00
2022-09-30T23:23:46.874Z,2.97
2022-09-30T23:26:15.204Z,3.10
2022-09-30T23:28:42.750Z,3.97
2022-09-30T23:31:12.487Z,3.50
2022-09-30T23:33:50.915Z,3.90
2022-09-30T23:36:20.627Z,3.50
2022-09-30T23:38:47.751Z,4.20
2022-09-30T23:41:14.957Z,3.00
2022-09-30T23:43:48.428Z,13.33
2022-09-30T23:46:17.311Z,2.87
2022-09-30T23:48:46.012Z,4.13
2022-09-30T23:51:16.053Z,6.27
2022-09-30T23:53:43.013Z,3.10
2022-09-30T23:56:13.224Z,3.57
2022-09-30T23:58:40.368Z,4.43
